sensor_id;sensor_type;location;lat;lon;timestamp;P1;durP1;ratioP1;P2;durP2;ratioP2
48367;SDS011;34173;47.446;18.912;2023-03-01T00:01:33;17.95;;;12.20;;
48367;SDS011;34173;47.446;18.912;2023-03-01T00:04:01;18.43;;;11.50;;
48367;SDS011;34173;47.446;18.912;2023-03-01T00:06:28;17.10;;;10.40;;
48367;SDS011;34173;47.446;18.912;2023-03-01T00:08:56;16.40;;;10.73;;
48367;SDS011;34173;47.446;18.912;2023-03-01T00:11:25;17.65;;;10.23;;
48367;SDS011;34173;47.446;18.912;2023-03-01T00:13:55;16.62;;;10.80;;
48367;SDS011;34173;47.446;18.912;2023-03-01T00:16:29;16.66;;;10.54;;
48367;SDS011;34173;47.446;18.912;2023-03-01T00:18:58;16.20;;;10.25;;
48367;SDS011;34173;47.446;18.912;2023-03-01T00:21:26;14.82;;;9.23;;
48367;SDS011;34173;47.446;18.912;2023-03-01T00:23:54;13.80;;;8.95;;
48367;SDS011;34173;47.446;18.912;2023-03-01T00:26:22;14.77;;;9.07;;
48367;SDS011;34173;47.446;18.912;2023-03-01T00:28:51;13.13;;;8.40;;
48367;SDS011;34173;47.446;18.912;2023-03-01T00:31:20;15.45;;;9.10;;
48367;SDS011;34173;47.446;18.912;2023-03-01T00:33:51;14.50;;;8.95;;
48367;SDS011;34173;47.446;18.912;2023-03-01T00:36:26;14.13;;;8.95;;
48367;SDS011;34173;47.446;18.912;2023-03-01T00:38:56;13.48;;;8.85;;
48367;SDS011;34173;47.446;18.912;2023-03-01T00:41:24;14.20;;;9.40;;
48367;SDS011;34173;47.446;18.912;2023-03-01T00:43:54;16.42;;;9.05;;
48367;SDS011;34173;47.446;18.912;2023-03-01T00:46:25;13.23;;;8.45;;
48367;SDS011;34173;47.446;18.912;2023-03-01T00:48:54;14.35;;;8.70;;
48367;SDS011;34173;47.446;18.912;2023-03-01T00:51:25;13.48;;;8.73;;
48367;SDS011;34173;47.446;18.912;2023-03-01T00:53:57;13.50;;;8.85;;
48367;SDS011;34173;47.446;18.912;2023-03-01T00:56:26;15.27;;;9.02;;
48367;SDS011;34173;47.446;18.912;2023-03-01T00:58:54;14.52;;;8.80;;
48367;SDS011;34173;47.446;18.912;2023-03-01T01:01:22;12.93;;;9.02;;
48367;SDS011;34173;47.446;18.912;2023-03-01T01:04:04;14.80;;;8.73;;
48367;SDS011;34173;47.446;18.912;2023-03-01T01:06:38;14.10;;;10.20;;
48367;SDS011;34173;47.446;18.912;2023-03-01T01:09:10;14.40;;;9.75;;
48367;SDS011;34173;47.446;18.912;2023-03-01T01:11:51;15.77;;;10.20;;
48367;SDS011;34173;47.446;18.912;2023-03-01T01:14:19;14.85;;;10.32;;
48367;SDS011;34173;47.446;18.912;2023-03-01T01:16:48;16.12;;;9.55;;
48367;SDS011;34173;47.446;18.912;2023-03-01T01:19:16;15.93;;;9.95;;
48367;SDS011;34173;47.446;18.912;2023-03-01T01:21:44;16.23;;;9.93;;
48367;SDS011;34173;47.446;18.912;2023-03-01T01:24:12;16.70;;;10.50;;
48367;SDS011;34173;47.446;18.912;2023-03-01T01:26:40;16.03;;;10.60;;
48367;SDS011;34173;47.446;18.912;2023-03-01T01:29:08;19.15;;;10.60;;
48367;SDS011;34173;47.446;18.912;2023-03-01T01:31:36;15.35;;;9.93;;
48367;SDS011;34173;47.446;18.912;2023-03-01T01:34:05;14.18;;;9.30;;
48367;SDS011;34173;47.446;18.912;2023-03-01T01:36:34;15.60;;;9.93;;
48367;SDS011;34173;47.446;18.912;2023-03-01T01:39:02;14.73;;;9.93;;
48367;SDS011;34173;47.446;18.912;2023-03-01T01:41:30;15.75;;;10.15;;
48367;SDS011;34173;47.446;18.912;2023-03-01T01:47:01;16.15;;;10.20;;
48367;SDS011;34173;47.446;18.912;2023-03-01T01:49:51;15.80;;;10.48;;
48367;SDS011;34173;47.446;18.912;2023-03-01T01:57:36;16.58;;;10.82;;
48367;SDS011;34173;47.446;18.912;2023-03-01T02:00:11;16.95;;;10.63;;
48367;SDS011;34173;47.446;18.912;2023-03-01T02:02:40;17.05;;;10.50;;
48367;SDS011;34173;47.446;18.912;2023-03-01T02:08:00;15.80;;;10.02;;
48367;SDS011;34173;47.446;18.912;2023-03-01T02:10:28;16.08;;;10.38;;
48367;SDS011;34173;47.446;18.912;2023-03-01T02:12:56;17.20;;;10.48;;
48367;SDS011;34173;47.446;18.912;2023-03-01T02:15:23;16.00;;;10.30;;
48367;SDS011;34173;47.446;18.912;2023-03-01T02:17:52;16.73;;;9.95;;
48367;SDS011;34173;47.446;18.912;2023-03-01T02:22:58;14.70;;;9.63;;
48367;SDS011;34173;47.446;18.912;2023-03-01T02:30:43;15.88;;;8.70;;
48367;SDS011;34173;47.446;18.912;2023-03-01T02:33:32;14.07;;;9.23;;
48367;SDS011;34173;47.446;18.912;2023-03-01T02:36:03;14.18;;;8.80;;
48367;SDS011;34173;47.446;18.912;2023-03-01T02:38:34;15.07;;;9.20;;
48367;SDS011;34173;47.446;18.912;2023-03-01T02:41:02;13.77;;;9.00;;
48367;SDS011;34173;47.446;18.912;2023-03-01T02:43:31;14.90;;;9.30;;
48367;SDS011;34173;47.446;18.912;2023-03-01T02:46:05;15.77;;;8.90;;
48367;SDS011;34173;47.446;18.912;2023-03-01T02:48:42;13.42;;;8.64;;
48367;SDS011;34173;47.446;18.912;2023-03-01T02:56:47;14.75;;;9.07;;
48367;SDS011;34173;47.446;18.912;2023-03-01T02:59:16;15.18;;;8.98;;
48367;SDS011;34173;47.446;18.912;2023-03-01T03:01:46;14.37;;;8.57;;
48367;SDS011;34173;47.446;18.912;2023-03-01T03:04:15;14.17;;;9.03;;
48367;SDS011;34173;47.446;18.912;2023-03-01T03:06:44;15.02;;;9.13;;
48367;SDS011;34173;47.446;18.912;2023-03-01T03:09:13;15.30;;;9.27;;
48367;SDS011;34173;47.446;18.912;2023-03-01T03:11:43;14.45;;;8.95;;
48367;SDS011;34173;47.446;18.912;2023-03-01T03:14:12;14.52;;;8.98;;
48367;SDS011;34173;47.446;18.912;2023-03-01T03:16:41;14.95;;;9.32;;
48367;SDS011;34173;47.446;18.912;2023-03-01T03:19:10;15.38;;;9.30;;
48367;SDS011;34173;47.446;18.912;2023-03-01T03:21:37;14.35;;;8.95;;
48367;SDS011;34173;47.446;18.912;2023-03-01T03:24:06;14.20;;;9.60;;
48367;SDS011;34173;47.446;18.912;2023-03-01T03:26:40;13.23;;;8.52;;
48367;SDS011;34173;47.446;18.912;2023-03-01T03:29:07;14.90;;;9.23;;
48367;SDS011;34173;47.446;18.912;2023-03-01T03:31:35;15.65;;;9.27;;
48367;SDS011;34173;47.446;18.912;2023-03-01T03:34:03;15.80;;;9.18;;
48367;SDS011;34173;47.446;18.912;2023-03-01T03:36:31;14.73;;;9.00;;
48367;SDS011;34173;47.446;18.912;2023-03-01T03:38:59;13.27;;;8.77;;
48367;SDS011;34173;47.446;18.912;2023-03-01T03:41:26;15.93;;;9.52;;
48367;SDS011;34173;47.446;18.912;2023-03-01T03:43:54;14.00;;;8.93;;
48367;SDS011;34173;47.446;18.912;2023-03-01T03:46:21;12.85;;;8.70;;
48367;SDS011;34173;47.446;18.912;2023-03-01T03:48:49;15.95;;;9.10;;
48367;SDS011;34173;47.446;18.912;2023-03-01T03:51:17;17.17;;;9.07;;
48367;SDS011;34173;47.446;18.912;2023-03-01T03:53:45;15.07;;;9.10;;
48367;SDS011;34173;47.446;18.912;2023-03-01T03:56:13;14.90;;;9.07;;
48367;SDS011;34173;47.446;18.912;2023-03-01T03:58:40;14.57;;;9.57;;
48367;SDS011;34173;47.446;18.912;2023-03-01T04:01:08;15.50;;;9.65;;
48367;SDS011;34173;47.446;18.912;2023-03-01T04:03:35;15.70;;;9.90;;
48367;SDS011;34173;47.446;18.912;2023-03-01T04:06:03;16.75;;;10.05;;
48367;SDS011;34173;47.446;18.912;2023-03-01T04:08:33;14.56;;;9.30;;
48367;SDS011;34173;47.446;18.912;2023-03-01T04:11:02;14.80;;;9.55;;
48367;SDS011;34173;47.446;18.912;2023-03-01T04:13:51;16.75;;;10.10;;
48367;SDS011;34173;47.446;18.912;2023-03-01T04:16:20;15.85;;;9.75;;
48367;SDS011;34173;47.446;18.912;2023-03-01T04:18:48;15.83;;;9.83;;
48367;SDS011;34173;47.446;18.912;2023-03-01T04:21:15;15.30;;;9.57;;
48367;SDS011;34173;47.446;18.912;2023-03-01T04:23:43;16.80;;;10.23;;
48367;SDS011;34173;47.446;18.912;2023-03-01T04:26:10;14.67;;;9.83;;
48367;SDS011;34173;47.446;18.912;2023-03-01T04:28:39;15.88;;;10.10;;
48367;SDS011;34173;47.446;18.912;2023-03-01T04:31:11;15.63;;;10.00;;
48367;SDS011;34173;47.446;18.912;2023-03-01T04:36:20;14.70;;;9.80;;
48367;SDS011;34173;47.446;18.912;2023-03-01T04:38:50;15.13;;;9.82;;
48367;SDS011;34173;47.446;18.912;2023-03-01T04:41:18;18.45;;;10.55;;
48367;SDS011;34173;47.446;18.912;2023-03-01T04:43:47;16.05;;;10.55;;
48367;SDS011;34173;47.446;18.912;2023-03-01T04:46:16;16.73;;;10.55;;
48367;SDS011;34173;47.446;18.912;2023-03-01T04:48:46;17.23;;;10.40;;
48367;SDS011;34173;47.446;18.912;2023-03-01T04:51:16;16.94;;;10.76;;
48367;SDS011;34173;47.446;18.912;2023-03-01T04:53:45;15.57;;;10.23;;
48367;SDS011;34173;47.446;18.912;2023-03-01T04:56:13;15.45;;;10.15;;
48367;SDS011;34173;47.446;18.912;2023-03-01T04:58:41;17.70;;;10.52;;
48367;SDS011;34173;47.446;18.912;2023-03-01T05:01:13;17.37;;;10.77;;
48367;SDS011;34173;47.446;18.912;2023-03-01T05:03:45;18.33;;;10.55;;
48367;SDS011;34173;47.446;18.912;2023-03-01T05:06:14;16.10;;;10.27;;
48367;SDS011;34173;47.446;18.912;2023-03-01T05:08:43;15.65;;;9.98;;
48367;SDS011;34173;47.446;18.912;2023-03-01T05:11:11;17.35;;;10.75;;
48367;SDS011;34173;47.446;18.912;2023-03-01T05:13:40;17.10;;;10.52;;
48367;SDS011;34173;47.446;18.912;2023-03-01T05:16:09;15.95;;;10.25;;
48367;SDS011;34173;47.446;18.912;2023-03-01T05:18:40;17.25;;;10.38;;
48367;SDS011;34173;47.446;18.912;2023-03-01T05:21:08;15.37;;;9.77;;
48367;SDS011;34173;47.446;18.912;2023-03-01T05:23:37;16.37;;;10.23;;
48367;SDS011;34173;47.446;18.912;2023-03-01T05:26:06;17.20;;;9.85;;
48367;SDS011;34173;47.446;18.912;2023-03-01T05:28:52;16.15;;;9.80;;
48367;SDS011;34173;47.446;18.912;2023-03-01T05:31:19;18.25;;;9.70;;
48367;SDS011;34173;47.446;18.912;2023-03-01T05:33:47;15.45;;;9.75;;
48367;SDS011;34173;47.446;18.912;2023-03-01T05:36:14;15.35;;;10.00;;
48367;SDS011;34173;47.446;18.912;2023-03-01T05:38:42;15.98;;;9.75;;
48367;SDS011;34173;47.446;18.912;2023-03-01T05:41:14;15.50;;;9.73;;
48367;SDS011;34173;47.446;18.912;2023-03-01T05:43:42;16.37;;;9.80;;
48367;SDS011;34173;47.446;18.912;2023-03-01T05:46:12;16.02;;;9.90;;
48367;SDS011;34173;47.446;18.912;2023-03-01T05:48:42;15.66;;;9.21;;
48367;SDS011;34173;47.446;18.912;2023-03-01T05:51:10;16.48;;;9.95;;
48367;SDS011;34173;47.446;18.912;2023-03-01T05:53:39;15.40;;;9.52;;
48367;SDS011;34173;47.446;18.912;2023-03-01T05:56:06;15.55;;;9.15;;
48367;SDS011;34173;47.446;18.912;2023-03-01T05:58:34;15.68;;;9.27;;
48367;SDS011;34173;47.446;18.912;2023-03-01T06:01:01;14.35;;;8.80;;
48367;SDS011;34173;47.446;18.912;2023-03-01T06:03:29;14.77;;;9.60;;
48367;SDS011;34173;47.446;18.912;2023-03-01T06:05:57;14.60;;;9.20;;
48367;SDS011;34173;47.446;18.912;2023-03-01T06:08:25;14.25;;;8.85;;
48367;SDS011;34173;47.446;18.912;2023-03-01T06:10:54;14.43;;;8.97;;
48367;SDS011;34173;47.446;18.912;2023-03-01T06:13:23;13.95;;;8.10;;
48367;SDS011;34173;47.446;18.912;2023-03-01T06:15:51;15.45;;;8.48;;
48367;SDS011;34173;47.446;18.912;2023-03-01T06:18:19;13.15;;;8.35;;
48367;SDS011;34173;47.446;18.912;2023-03-01T06:20:52;15.20;;;8.50;;
48367;SDS011;34173;47.446;18.912;2023-03-01T06:23:23;13.93;;;8.68;;
48367;SDS011;34173;47.446;18.912;2023-03-01T06:25:51;13.20;;;8.00;;
48367;SDS011;34173;47.446;18.912;2023-03-01T06:28:19;14.40;;;8.13;;
48367;SDS011;34173;47.446;18.912;2023-03-01T06:30:47;15.15;;;8.82;;
48367;SDS011;34173;47.446;18.912;2023-03-01T06:33:16;13.18;;;8.60;;
48367;SDS011;34173;47.446;18.912;2023-03-01T06:35:48;15.20;;;8.90;;
48367;SDS011;34173;47.446;18.912;2023-03-01T06:38:17;14.63;;;8.95;;
48367;SDS011;34173;47.446;18.912;2023-03-01T06:40:51;14.70;;;8.77;;
48367;SDS011;34173;47.446;18.912;2023-03-01T06:43:19;15.30;;;9.00;;
48367;SDS011;34173;47.446;18.912;2023-03-01T06:45:47;16.20;;;9.15;;
48367;SDS011;34173;47.446;18.912;2023-03-01T06:48:15;14.23;;;8.90;;
48367;SDS011;34173;47.446;18.912;2023-03-01T06:50:43;15.38;;;9.30;;
48367;SDS011;34173;47.446;18.912;2023-03-01T06:53:10;14.75;;;9.35;;
48367;SDS011;34173;47.446;18.912;2023-03-01T06:55:38;13.93;;;9.35;;
48367;SDS011;34173;47.446;18.912;2023-03-01T06:58:05;15.50;;;9.45;;
48367;SDS011;34173;47.446;18.912;2023-03-01T07:00:33;15.00;;;9.20;;
48367;SDS011;34173;47.446;18.912;2023-03-01T07:03:01;16.33;;;9.50;;
48367;SDS011;34173;47.446;18.912;2023-03-01T07:05:30;14.68;;;9.55;;
48367;SDS011;34173;47.446;18.912;2023-03-01T07:07:58;18.08;;;11.35;;
48367;SDS011;34173;47.446;18.912;2023-03-01T07:10:25;22.67;;;12.90;;
48367;SDS011;34173;47.446;18.912;2023-03-01T07:12:56;17.40;;;10.70;;
48367;SDS011;34173;47.446;18.912;2023-03-01T07:15:25;17.35;;;10.70;;
48367;SDS011;34173;47.446;18.912;2023-03-01T07:17:53;21.75;;;12.95;;
48367;SDS011;34173;47.446;18.912;2023-03-01T07:20:21;20.15;;;12.13;;
48367;SDS011;34173;47.446;18.912;2023-03-01T07:22:52;20.52;;;13.25;;
48367;SDS011;34173;47.446;18.912;2023-03-01T07:25:20;19.17;;;11.03;;
48367;SDS011;34173;47.446;18.912;2023-03-01T07:27:51;18.08;;;11.63;;
48367;SDS011;34173;47.446;18.912;2023-03-01T07:30:20;15.00;;;9.52;;
48367;SDS011;34173;47.446;18.912;2023-03-01T07:32:48;15.38;;;9.45;;
48367;SDS011;34173;47.446;18.912;2023-03-01T07:35:16;16.25;;;10.38;;
48367;SDS011;34173;47.446;18.912;2023-03-01T07:37:43;14.30;;;10.07;;
48367;SDS011;34173;47.446;18.912;2023-03-01T07:40:11;19.02;;;13.23;;
48367;SDS011;34173;47.446;18.912;2023-03-01T07:42:39;17.60;;;10.32;;
48367;SDS011;34173;47.446;18.912;2023-03-01T07:45:07;16.50;;;10.10;;
48367;SDS011;34173;47.446;18.912;2023-03-01T07:47:35;14.20;;;9.65;;
48367;SDS011;34173;47.446;18.912;2023-03-01T07:50:03;15.50;;;9.95;;
48367;SDS011;34173;47.446;18.912;2023-03-01T07:52:31;14.40;;;9.68;;
48367;SDS011;34173;47.446;18.912;2023-03-01T07:54:59;16.30;;;10.35;;
48367;SDS011;34173;47.446;18.912;2023-03-01T07:57:26;15.93;;;10.10;;
48367;SDS011;34173;47.446;18.912;2023-03-01T07:59:53;17.33;;;10.32;;
48367;SDS011;34173;47.446;18.912;2023-03-01T08:02:21;17.35;;;10.52;;
48367;SDS011;34173;47.446;18.912;2023-03-01T08:04:49;17.30;;;11.15;;
48367;SDS011;34173;47.446;18.912;2023-03-01T08:07:16;16.50;;;10.67;;
48367;SDS011;34173;47.446;18.912;2023-03-01T08:09:44;15.23;;;9.77;;
48367;SDS011;34173;47.446;18.912;2023-03-01T08:12:12;16.42;;;10.15;;
48367;SDS011;34173;47.446;18.912;2023-03-01T08:14:39;21.98;;;15.32;;
48367;SDS011;34173;47.446;18.912;2023-03-01T08:17:07;28.73;;;18.52;;
48367;SDS011;34173;47.446;18.912;2023-03-01T08:19:35;22.45;;;14.60;;
48367;SDS011;34173;47.446;18.912;2023-03-01T08:22:02;17.58;;;11.00;;
48367;SDS011;34173;47.446;18.912;2023-03-01T08:24:30;17.15;;;10.57;;
48367;SDS011;34173;47.446;18.912;2023-03-01T08:26:57;15.07;;;9.25;;
48367;SDS011;34173;47.446;18.912;2023-03-01T08:29:25;15.25;;;9.07;;
48367;SDS011;34173;47.446;18.912;2023-03-01T08:31:52;13.60;;;8.75;;
48367;SDS011;34173;47.446;18.912;2023-03-01T08:34:20;13.40;;;8.90;;
48367;SDS011;34173;47.446;18.912;2023-03-01T08:36:48;13.33;;;8.70;;
48367;SDS011;34173;47.446;18.912;2023-03-01T10:07:51;19.52;;;11.23;;
48367;SDS011;34173;47.446;18.912;2023-03-01T10:10:26;16.83;;;9.98;;
48367;SDS011;34173;47.446;18.912;2023-03-01T10:13:00;17.45;;;9.05;;
48367;SDS011;34173;47.446;18.912;2023-03-01T10:15:34;13.48;;;7.72;;
48367;SDS011;34173;47.446;18.912;2023-03-01T10:18:13;14.73;;;8.88;;
48367;SDS011;34173;47.446;18.912;2023-03-01T10:20:56;14.07;;;8.35;;
48367;SDS011;34173;47.446;18.912;2023-03-01T10:23:26;28.50;;;15.32;;
48367;SDS011;34173;47.446;18.912;2023-03-01T10:31:47;13.95;;;7.97;;
48367;SDS011;34173;47.446;18.912;2023-03-01T10:34:19;14.45;;;8.65;;
48367;SDS011;34173;47.446;18.912;2023-03-01T10:36:49;17.73;;;8.63;;
48367;SDS011;34173;47.446;18.912;2023-03-01T10:39:19;15.73;;;9.65;;
48367;SDS011;34173;47.446;18.912;2023-03-01T10:41:56;19.40;;;11.52;;
48367;SDS011;34173;47.446;18.912;2023-03-01T10:47:28;16.98;;;10.45;;
48367;SDS011;34173;47.446;18.912;2023-03-01T10:49:57;15.82;;;9.15;;
48367;SDS011;34173;47.446;18.912;2023-03-01T10:52:33;13.57;;;8.27;;
48367;SDS011;34173;47.446;18.912;2023-03-01T11:00:55;16.00;;;8.70;;
48367;SDS011;34173;47.446;18.912;2023-03-01T11:03:37;15.63;;;9.63;;
48367;SDS011;34173;47.446;18.912;2023-03-01T11:06:19;13.38;;;8.68;;
48367;SDS011;34173;47.446;18.912;2023-03-01T11:08:49;14.82;;;8.70;;
48367;SDS011;34173;47.446;18.912;2023-03-01T11:11:25;14.82;;;8.80;;
48367;SDS011;34173;47.446;18.912;2023-03-01T11:14:00;16.33;;;9.93;;
48367;SDS011;34173;47.446;18.912;2023-03-01T11:17:04;15.73;;;9.15;;
48367;SDS011;34173;47.446;18.912;2023-03-01T11:19:33;16.12;;;9.40;;
48367;SDS011;34173;47.446;18.912;2023-03-01T11:24:43;16.95;;;11.25;;
48367;SDS011;34173;47.446;18.912;2023-03-01T11:27:17;16.37;;;8.82;;
48367;SDS011;34173;47.446;18.912;2023-03-01T11:30:07;19.70;;;10.15;;
48367;SDS011;34173;47.446;18.912;2023-03-01T11:32:41;14.32;;;9.25;;
48367;SDS011;34173;47.446;18.912;2023-03-01T11:35:15;16.77;;;11.68;;
48367;SDS011;34173;47.446;18.912;2023-03-01T11:37:51;11.32;;;7.03;;
48367;SDS011;34173;47.446;18.912;2023-03-01T11:43:20;20.80;;;12.37;;
48367;SDS011;34173;47.446;18.912;2023-03-01T11:45:56;15.45;;;8.05;;
48367;SDS011;34173;47.446;18.912;2023-03-01T11:56:56;13.55;;;8.38;;
48367;SDS011;34173;47.446;18.912;2023-03-01T12:01:59;14.80;;;10.00;;
48367;SDS011;34173;47.446;18.912;2023-03-01T12:10:10;18.37;;;10.35;;
48367;SDS011;34173;47.446;18.912;2023-03-01T12:25:58;12.93;;;7.03;;
48367;SDS011;34173;47.446;18.912;2023-03-01T12:28:52;16.02;;;7.37;;
48367;SDS011;34173;47.446;18.912;2023-03-01T12:34:17;12.77;;;7.75;;
48367;SDS011;34173;47.446;18.912;2023-03-01T13:18:01;12.00;;;6.75;;
48367;SDS011;34173;47.446;18.912;2023-03-01T13:33:50;13.55;;;7.15;;
48367;SDS011;34173;47.446;18.912;2023-03-01T13:44:20;11.52;;;7.10;;
48367;SDS011;34173;47.446;18.912;2023-03-01T13:46:52;16.08;;;6.87;;
48367;SDS011;34173;47.446;18.912;2023-03-01T13:49:21;11.00;;;6.28;;
48367;SDS011;34173;47.446;18.912;2023-03-01T13:51:50;13.98;;;6.97;;
48367;SDS011;34173;47.446;18.912;2023-03-01T13:54:26;13.30;;;6.68;;
48367;SDS011;34173;47.446;18.912;2023-03-01T13:56:57;11.20;;;6.90;;
48367;SDS011;34173;47.446;18.912;2023-03-01T13:59:26;15.25;;;6.35;;
48367;SDS011;34173;47.446;18.912;2023-03-01T14:01:59;11.55;;;7.12;;
48367;SDS011;34173;47.446;18.912;2023-03-01T14:04:32;15.02;;;6.50;;
48367;SDS011;34173;47.446;18.912;2023-03-01T14:07:13;11.35;;;5.97;;
48367;SDS011;34173;47.446;18.912;2023-03-01T14:09:49;14.30;;;5.87;;
48367;SDS011;34173;47.446;18.912;2023-03-01T14:15:19;12.02;;;6.03;;
48367;SDS011;34173;47.446;18.912;2023-03-01T14:17:55;12.50;;;7.45;;
48367;SDS011;34173;47.446;18.912;2023-03-01T14:20:32;12.65;;;6.82;;
48367;SDS011;34173;47.446;18.912;2023-03-01T14:23:09;10.98;;;5.55;;
48367;SDS011;34173;47.446;18.912;2023-03-01T14:38:33;12.70;;;6.37;;
48367;SDS011;34173;47.446;18.912;2023-03-01T14:41:07;13.88;;;6.62;;
48367;SDS011;34173;47.446;18.912;2023-03-01T14:43:37;14.38;;;7.72;;
48367;SDS011;34173;47.446;18.912;2023-03-01T14:46:06;11.15;;;6.68;;
48367;SDS011;34173;47.446;18.912;2023-03-01T14:49:09;9.73;;;5.95;;
48367;SDS011;34173;47.446;18.912;2023-03-01T14:52:04;9.55;;;5.93;;
48367;SDS011;34173;47.446;18.912;2023-03-01T14:57:14;17.58;;;8.20;;
48367;SDS011;34173;47.446;18.912;2023-03-01T14:59:43;11.63;;;5.22;;
48367;SDS011;34173;47.446;18.912;2023-03-01T17:17:57;45.33;;;20.92;;
48367;SDS011;34173;47.446;18.912;2023-03-01T18:12:30;53.05;;;26.30;;
48367;SDS011;34173;47.446;18.912;2023-03-01T18:14:59;55.10;;;24.87;;
48367;SDS011;34173;47.446;18.912;2023-03-01T18:17:27;59.58;;;26.73;;
48367;SDS011;34173;47.446;18.912;2023-03-01T18:19:56;71.03;;;30.10;;
48367;SDS011;34173;47.446;18.912;2023-03-01T18:22:25;62.50;;;28.80;;
48367;SDS011;34173;47.446;18.912;2023-03-01T18:24:53;59.28;;;28.73;;
48367;SDS011;34173;47.446;18.912;2023-03-01T18:27:22;65.25;;;29.17;;
48367;SDS011;34173;47.446;18.912;2023-03-01T19:19:31;78.00;;;32.80;;
48367;SDS011;34173;47.446;18.912;2023-03-01T19:21:59;67.20;;;30.65;;
48367;SDS011;34173;47.446;18.912;2023-03-01T19:24:33;49.80;;;23.45;;
48367;SDS011;34173;47.446;18.912;2023-03-01T19:27:06;45.17;;;21.92;;
